Time;durP1;ratioP1;P1;durP2;ratioP2;P2;SDS_P1;SDS_P2;PMS_P1;PMS_P2;Temp;Humidity;BMP_temperature;BMP_pressure;BME280_temperature;BME280_humidity;BME280_pressure;Samples;Min_cycle;Max_cycle;Signal;HPM_P1;HPM_P2
2021/12/31 00:02:14;;;;;;;;;;;19.90;66.00;;;;;;5002172;28;20242;-89
2021/12/31 00:04:40;;;;;;;;;;;19.80;65.90;;;;;;5024658;28;19929;-88
2021/12/31 00:07:05;;;;;;;;;;;19.80;65.70;;;;;;4995983;28;19920;-88
2021/12/31 00:09:31;;;;;;;;;;;19.80;65.80;;;;;;4980173;28;20401;-88
2021/12/31 00:11:56;;;;;;;;;;;19.70;65.80;;;;;;4992278;28;20040;-89
2021/12/31 00:14:22;;;;;;;;;;;19.60;65.80;;;;;;4988493;28;20016;-88
2021/12/31 00:16:48;;;;;;;;;;;19.50;65.70;;;;;;4990512;28;19925;-88
2021/12/31 00:19:14;;;;;;;;;;;19.40;65.80;;;;;;4992382;28;19922;-88
2021/12/31 00:21:43;;;;;;;;;;;19.40;65.90;;;;;;4985569;28;20365;-88
2021/12/31 00:24:09;;;;;;;;;;;19.40;65.90;;;;;;4990151;28;20332;-89
2021/12/31 00:26:34;;;;;;;;;;;19.40;66.00;;;;;;4998721;28;19914;-88
2021/12/31 00:29:00;;;;;;;;;;;19.40;66.00;;;;;;5005106;28;20342;-88
2021/12/31 00:31:26;;;;;;;;;;;19.40;65.90;;;;;;4977056;28;19928;-88
2021/12/31 00:33:52;;;;;;;;;;;19.40;66.00;;;;;;4974256;28;19922;-88
2021/12/31 00:36:18;;;;;;;;;;;19.40;66.00;;;;;;4991126;28;19921;-88
2021/12/31 00:38:44;;;;;;;;;;;19.40;65.90;;;;;;5006117;28;20004;-88
2021/12/31 00:41:10;;;;;;;;;;;19.50;65.90;;;;;;4982823;28;20440;-87
2021/12/31 00:43:35;;;;;;;;;;;19.40;65.90;;;;;;4999902;28;19926;-87
2021/12/31 00:46:02;;;;;;;;;;;19.50;65.90;;;;;;4992260;28;19913;-88
2021/12/31 00:48:30;;;;;;;;;;;19.50;65.80;;;;;;5004597;28;19917;-88
2021/12/31 00:50:56;;;;;;;;;;;19.50;65.80;;;;;;5008405;28;20361;-88
2021/12/31 00:53:22;;;;;;;;;;;19.50;65.90;;;;;;5004685;28;19925;-87
2021/12/31 00:55:48;;;;;;;;;;;19.40;65.90;;;;;;4997488;28;19984;-87
2021/12/31 00:58:13;;;;;;;;;;;19.40;66.00;;;;;;4997304;28;19917;-87
2021/12/31 01:00:39;;;;;;;;;;;19.50;65.80;;;;;;4995983;28;20346;-88
2021/12/31 01:03:04;;;;;;;;;;;19.50;65.90;;;;;;4997632;28;19929;-87
2021/12/31 01:05:30;;;;;;;;;;;19.40;65.90;;;;;;4997242;28;19913;-87
2021/12/31 01:07:55;;;;;;;;;;;19.50;65.90;;;;;;5015228;28;19914;-88
2021/12/31 01:10:23;;;;;;;;;;;19.40;65.90;;;;;;4995242;28;20422;-88
2021/12/31 01:12:50;;;;;;;;;;;19.30;65.90;;;;;;4995073;28;20414;-88
2021/12/31 01:15:38;;;;;;;;;;;19.30;65.90;;;;;;4977915;28;19921;-87
2021/12/31 01:20:35;;;;;;;;;;;19.20;66.00;;;;;;4996218;28;20443;-87
2021/12/31 01:23:01;;;;;;;;;;;19.10;66.10;;;;;;4995342;28;20004;-87
2021/12/31 01:25:27;;;;;;;;;;;19.10;66.10;;;;;;4995205;28;20329;-87
2021/12/31 01:27:52;;;;;;;;;;;19.00;66.20;;;;;;4978184;28;20396;-87
2021/12/31 01:30:18;;;;;;;;;;;19.00;66.30;;;;;;4995113;28;19926;-87
2021/12/31 01:32:45;;;;;;;;;;;19.00;66.40;;;;;;5007568;28;20384;-87
2021/12/31 01:35:11;;;;;;;;;;;18.90;66.50;;;;;;4995363;28;19918;-87
2021/12/31 01:37:36;;;;;;;;;;;18.90;66.50;;;;;;4977567;28;20033;-87
2021/12/31 01:40:03;;;;;;;;;;;18.90;66.60;;;;;;4978243;28;19922;-88
2021/12/31 01:42:32;;;;;;;;;;;18.80;66.70;;;;;;4978667;28;20386;-88
2021/12/31 01:45:04;;;;;;;;;;;18.80;66.80;;;;;;4977297;28;20435;-87
2021/12/31 01:50:15;;;;;;;;;;;18.80;66.90;;;;;;4994071;28;19960;-88
2021/12/31 01:52:41;;;;;;;;;;;18.80;67.00;;;;;;4985405;28;20301;-87
2021/12/31 01:55:09;;;;;;;;;;;18.80;67.00;;;;;;4996210;28;19918;-88
2021/12/31 01:57:34;;;;;;;;;;;18.80;67.00;;;;;;4995686;28;19916;-87
2021/12/31 02:00:00;;;;;;;;;;;18.80;67.10;;;;;;5014014;28;19917;-88
2021/12/31 02:02:25;;;;;;;;;;;18.80;67.10;;;;;;5010079;28;20488;-88
2021/12/31 02:04:52;;;;;;;;;;;18.80;67.10;;;;;;4989048;28;19925;-87
2021/12/31 02:07:17;;;;;;;;;;;18.80;67.00;;;;;;4992186;28;19924;-89
2021/12/31 02:09:48;;;;;;;;;;;18.90;67.00;;;;;;4977213;28;19922;-87
2021/12/31 02:12:14;;;;;;;;;;;18.90;67.00;;;;;;5006111;28;19917;-87
2021/12/31 02:14:40;;;;;;;;;;;18.90;66.90;;;;;;4994043;28;20326;-87
2021/12/31 02:17:08;;;;;;;;;;;18.90;66.90;;;;;;4995350;28;20410;-88
2021/12/31 02:19:33;;;;;;;;;;;18.90;66.80;;;;;;4994978;28;19917;-87
2021/12/31 02:21:59;;;;;;;;;;;18.90;66.80;;;;;;5009710;28;19924;-87
2021/12/31 02:24:25;;;;;;;;;;;18.90;66.80;;;;;;4995025;28;20330;-88
2021/12/31 02:26:50;;;;;;;;;;;19.00;66.80;;;;;;5008145;28;19932;-87
2021/12/31 02:29:16;;;;;;;;;;;18.90;66.70;;;;;;5012890;28;20003;-88
2021/12/31 02:31:42;;;;;;;;;;;18.90;66.70;;;;;;4993985;28;19918;-88
2021/12/31 02:34:08;;;;;;;;;;;18.90;66.70;;;;;;4981019;28;19921;-88
2021/12/31 02:36:33;;;;;;;;;;;18.90;66.70;;;;;;5011970;28;20008;-88
2021/12/31 02:38:59;;;;;;;;;;;18.90;66.70;;;;;;4992945;28;19922;-88
2021/12/31 02:41:24;;;;;;;;;;;18.90;66.80;;;;;;4981311;28;19921;-88
2021/12/31 02:43:49;;;;;;;;;;;18.90;66.70;;;;;;4977858;28;19918;-88
2021/12/31 02:46:15;;;;;;;;;;;18.90;66.80;;;;;;4975305;28;19918;-88
2021/12/31 02:48:41;;;;;;;;;;;18.90;66.80;;;;;;4990789;28;19921;-88
2021/12/31 02:51:06;;;;;;;;;;;18.90;66.70;;;;;;5005084;28;20361;-88
2021/12/31 02:53:36;;;;;;;;;;;18.90;66.70;;;;;;4972371;28;20377;-88
2021/12/31 02:56:03;;;;;;;;;;;18.90;66.80;;;;;;4993625;28;19921;-88
2021/12/31 02:58:29;;;;;;;;;;;19.00;66.80;;;;;;4981566;28;19922;-88
2021/12/31 03:00:55;;;;;;;;;;;19.00;66.80;;;;;;4983339;28;20246;-88
2021/12/31 03:03:22;;;;;;;;;;;19.00;66.70;;;;;;5007051;28;19917;-88
2021/12/31 03:05:48;;;;;;;;;;;19.10;66.70;;;;;;4992378;28;19914;-88
2021/12/31 03:08:14;;;;;;;;;;;19.10;66.60;;;;;;4993492;28;20377;-88
2021/12/31 03:10:41;;;;;;;;;;;19.10;66.70;;;;;;5005999;28;20385;-88
2021/12/31 03:13:07;;;;;;;;;;;19.10;66.60;;;;;;4984806;28;19922;-88
2021/12/31 03:15:32;;;;;;;;;;;19.10;66.60;;;;;;5006101;28;20254;-87
2021/12/31 03:18:02;;;;;;;;;;;19.10;66.60;;;;;;4982465;28;20186;-88
2021/12/31 03:20:36;;;;;;;;;;;19.10;66.60;;;;;;4992881;28;19929;-88
2021/12/31 03:23:05;;;;;;;;;;;19.20;66.50;;;;;;4992612;28;20289;-86
2021/12/31 03:25:31;;;;;;;;;;;19.20;66.50;;;;;;5004370;28;19924;-88
2021/12/31 03:27:57;;;;;;;;;;;19.20;66.50;;;;;;4992302;28;20433;-88
2021/12/31 03:30:22;;;;;;;;;;;19.20;66.40;;;;;;4975389;28;20033;-88
2021/12/31 03:32:48;;;;;;;;;;;19.20;66.40;;;;;;4988849;28;19928;-88
2021/12/31 03:35:13;;;;;;;;;;;19.20;66.40;;;;;;5009138;28;19914;-88
2021/12/31 03:37:38;;;;;;;;;;;19.20;66.30;;;;;;5003491;28;20378;-88
2021/12/31 03:40:04;;;;;;;;;;;19.20;66.30;;;;;;4982762;28;20282;-88
2021/12/31 03:42:31;;;;;;;;;;;19.20;66.40;;;;;;5011035;28;19964;-88
2021/12/31 03:44:57;;;;;;;;;;;19.20;66.20;;;;;;4992321;28;19968;-88
2021/12/31 03:47:22;;;;;;;;;;;19.20;66.30;;;;;;4985514;28;19928;-88
2021/12/31 03:49:47;;;;;;;;;;;19.30;66.40;;;;;;5011195;28;20376;-88
2021/12/31 03:52:13;;;;;;;;;;;19.30;66.30;;;;;;5012004;28;20056;-88
2021/12/31 03:54:38;;;;;;;;;;;19.30;66.20;;;;;;5013328;28;20329;-87
2021/12/31 03:57:05;;;;;;;;;;;19.30;66.30;;;;;;4995746;28;19922;-88
2021/12/31 03:59:31;;;;;;;;;;;19.30;66.20;;;;;;4978006;28;20410;-88
2021/12/31 04:01:56;;;;;;;;;;;19.30;66.30;;;;;;4989265;28;19972;-88
2021/12/31 04:04:22;;;;;;;;;;;19.30;66.20;;;;;;4988434;28;19921;-88
2021/12/31 04:06:47;;;;;;;;;;;19.30;66.20;;;;;;5009418;28;19917;-88
2021/12/31 04:09:13;;;;;;;;;;;19.30;66.20;;;;;;4978106;28;19929;-88
2021/12/31 04:11:38;;;;;;;;;;;19.30;66.30;;;;;;5006303;28;19921;-88
2021/12/31 04:14:04;;;;;;;;;;;19.30;66.20;;;;;;5006066;28;19964;-88
2021/12/31 04:16:30;;;;;;;;;;;19.40;66.10;;;;;;4977357;28;20000;-88
2021/12/31 04:18:56;;;;;;;;;;;19.40;66.10;;;;;;5011226;28;19928;-88
2021/12/31 04:21:23;;;;;;;;;;;19.40;66.10;;;;;;5010200;28;20368;-88
2021/12/31 04:23:52;;;;;;;;;;;19.40;66.00;;;;;;4981392;28;19932;-89
2021/12/31 04:26:18;;;;;;;;;;;19.40;66.10;;;;;;4978501;28;19940;-88
2021/12/31 04:28:44;;;;;;;;;;;19.40;66.00;;;;;;5008162;28;19922;-88
2021/12/31 04:31:10;;;;;;;;;;;19.40;66.10;;;;;;4987463;28;19928;-88
2021/12/31 04:33:35;;;;;;;;;;;19.40;66.10;;;;;;4991795;28;19922;-88
2021/12/31 04:36:01;;;;;;;;;;;19.40;66.10;;;;;;4987186;28;19917;-88
2021/12/31 04:38:26;;;;;;;;;;;19.40;66.10;;;;;;5007786;28;20281;-88
2021/12/31 04:40:52;;;;;;;;;;;19.50;65.80;;;;;;4994868;28;19913;-88
2021/12/31 04:43:17;;;;;;;;;;;19.50;66.10;;;;;;5002985;28;20011;-88
2021/12/31 04:45:43;;;;;;;;;;;19.50;65.90;;;;;;5006426;28;19914;-88
2021/12/31 04:48:08;;;;;;;;;;;19.50;66.00;;;;;;5012103;28;19925;-88
2021/12/31 04:50:34;;;;;;;;;;;19.50;66.00;;;;;;4985771;28;20005;-88
2021/12/31 04:52:59;;;;;;;;;;;19.50;65.80;;;;;;4978726;28;19921;-88
2021/12/31 04:55:26;;;;;;;;;;;19.50;65.90;;;;;;5006018;28;19918;-88
2021/12/31 04:57:51;;;;;;;;;;;19.50;65.90;;;;;;4977272;28;20004;-88
2021/12/31 05:00:17;;;;;;;;;;;19.50;65.80;;;;;;5012108;28;20004;-88
2021/12/31 05:02:42;;;;;;;;;;;19.50;65.80;;;;;;4996006;28;20028;-88
2021/12/31 05:05:08;;;;;;;;;;;19.50;65.90;;;;;;4991978;28;20353;-88
2021/12/31 05:07:33;;;;;;;;;;;19.50;65.90;;;;;;4993155;28;20016;-88
2021/12/31 05:09:59;;;;;;;;;;;19.60;65.90;;;;;;4977216;28;20333;-88
2021/12/31 05:12:30;;;;;;;;;;;19.50;65.80;;;;;;5002553;28;19940;-88
2021/12/31 05:14:56;;;;;;;;;;;19.60;65.70;;;;;;4994211;28;19967;-88
2021/12/31 05:17:21;;;;;;;;;;;19.50;65.70;;;;;;5014258;28;20336;-88
2021/12/31 05:19:47;;;;;;;;;;;19.50;65.70;;;;;;4998053;28;19928;-88
2021/12/31 05:22:12;;;;;;;;;;;19.50;65.80;;;;;;4996388;28;19918;-87
2021/12/31 05:24:38;;;;;;;;;;;19.50;65.80;;;;;;5000464;28;19944;-87
2021/12/31 05:27:04;;;;;;;;;;;19.50;65.80;;;;;;4994737;28;19918;-88
2021/12/31 05:29:29;;;;;;;;;;;19.60;65.80;;;;;;4987610;28;19929;-88
2021/12/31 05:31:55;;;;;;;;;;;19.60;65.80;;;;;;5006891;28;19917;-88
2021/12/31 05:34:20;;;;;;;;;;;19.60;65.80;;;;;;4993986;28;19922;-88
2021/12/31 05:36:46;;;;;;;;;;;19.50;65.70;;;;;;4997387;28;19917;-88
2021/12/31 05:39:13;;;;;;;;;;;19.60;65.80;;;;;;4999924;28;19921;-87
2021/12/31 05:41:39;;;;;;;;;;;19.50;65.70;;;;;;4994176;28;19932;-88
2021/12/31 05:44:05;;;;;;;;;;;19.60;65.60;;;;;;4994730;28;19976;-87
2021/12/31 05:46:31;;;;;;;;;;;19.60;65.70;;;;;;5004908;28;20011;-88
2021/12/31 05:48:56;;;;;;;;;;;19.60;65.70;;;;;;4979658;28;19928;-88
2021/12/31 05:51:22;;;;;;;;;;;19.50;65.70;;;;;;4992788;28;20396;-89
2021/12/31 05:53:47;;;;;;;;;;;19.50;65.70;;;;;;5004674;28;19918;-88
2021/12/31 05:56:13;;;;;;;;;;;19.60;65.50;;;;;;4984667;28;20029;-88
2021/12/31 05:58:38;;;;;;;;;;;19.50;65.60;;;;;;4995725;28;19926;-88
2021/12/31 06:01:03;;;;;;;;;;;19.50;65.70;;;;;;5011996;28;19921;-88
2021/12/31 06:03:29;;;;;;;;;;;19.50;65.60;;;;;;4998706;28;19925;-87
2021/12/31 06:05:54;;;;;;;;;;;19.50;65.70;;;;;;5011909;28;19925;-87
2021/12/31 06:08:20;;;;;;;;;;;19.50;65.70;;;;;;5003850;28;20033;-88
2021/12/31 06:10:45;;;;;;;;;;;19.50;65.60;;;;;;4993750;28;19976;-88
2021/12/31 06:13:12;;;;;;;;;;;19.50;65.50;;;;;;4996708;28;19988;-87
2021/12/31 06:15:41;;;;;;;;;;;19.50;65.60;;;;;;4995291;28;19917;-87
2021/12/31 06:18:06;;;;;;;;;;;19.50;65.60;;;;;;5012059;28;19976;-88
2021/12/31 06:20:34;;;;;;;;;;;19.50;65.60;;;;;;5012506;28;19917;-88
2021/12/31 06:22:59;;;;;;;;;;;19.50;65.70;;;;;;4992905;28;19961;-88
2021/12/31 06:25:25;;;;;;;;;;;19.50;65.70;;;;;;4997801;28;19960;-88
2021/12/31 06:27:51;;;;;;;;;;;19.50;65.60;;;;;;4983597;28;19914;-88
2021/12/31 06:30:16;;;;;;;;;;;19.60;65.70;;;;;;4992262;28;20320;-88
2021/12/31 06:32:41;;;;;;;;;;;19.50;65.40;;;;;;4989886;28;20381;-88
2021/12/31 06:35:07;;;;;;;;;;;19.50;65.50;;;;;;4988545;28;20407;-88
2021/12/31 06:37:33;;;;;;;;;;;19.50;65.50;;;;;;5011313;28;20428;-88
2021/12/31 06:40:03;;;;;;;;;;;19.50;65.30;;;;;;4981511;28;19965;-88
2021/12/31 06:42:29;;;;;;;;;;;19.50;65.30;;;;;;5020928;28;20339;-88
2021/12/31 06:44:54;;;;;;;;;;;19.50;65.50;;;;;;5001074;28;19925;-88
2021/12/31 06:47:20;;;;;;;;;;;19.50;65.30;;;;;;5007758;28;19980;-88
2021/12/31 06:49:45;;;;;;;;;;;19.50;65.30;;;;;;4989532;28;19925;-88
2021/12/31 06:52:10;;;;;;;;;;;19.50;65.30;;;;;;4974917;28;19921;-88
2021/12/31 06:54:36;;;;;;;;;;;19.50;65.10;;;;;;4992824;28;19930;-88
2021/12/31 06:57:03;;;;;;;;;;;19.50;65.20;;;;;;4993545;28;19921;-88
2021/12/31 06:59:29;;;;;;;;;;;19.50;65.10;;;;;;5011517;28;19921;-88
2021/12/31 07:01:55;;;;;;;;;;;19.50;65.10;;;;;;4981917;28;20404;-88
2021/12/31 07:04:20;;;;;;;;;;;19.40;65.20;;;;;;5003282;28;19961;-88
2021/12/31 07:06:46;;;;;;;;;;;19.50;65.30;;;;;;5001215;28;20397;-88
2021/12/31 07:09:11;;;;;;;;;;;19.50;65.10;;;;;;4991209;28;20294;-87
2021/12/31 07:11:37;;;;;;;;;;;19.50;65.00;;;;;;4991582;28;19960;-87
2021/12/31 07:14:02;;;;;;;;;;;19.40;65.10;;;;;;4985029;28;19918;-87
2021/12/31 07:16:28;;;;;;;;;;;19.40;65.00;;;;;;4988429;28;20008;-87
2021/12/31 07:18:53;;;;;;;;;;;19.40;64.90;;;;;;5010965;28;20366;-87
2021/12/31 07:21:19;;;;;;;;;;;19.40;65.00;;;;;;4987227;28;19921;-87
2021/12/31 07:23:44;;;;;;;;;;;19.40;65.10;;;;;;4982814;28;20024;-87
2021/12/31 07:26:09;;;;;;;;;;;19.40;65.20;;;;;;5006562;28;19924;-87
2021/12/31 07:28:35;;;;;;;;;;;19.30;65.00;;;;;;5011208;28;19922;-90
2021/12/31 07:31:00;;;;;;;;;;;19.40;65.10;;;;;;5009321;28;20008;-90
2021/12/31 07:33:26;;;;;;;;;;;19.40;65.10;;;;;;4986269;28;19917;-89
2021/12/31 07:35:52;;;;;;;;;;;19.40;65.00;;;;;;5005584;28;19913;-89
2021/12/31 07:38:23;;;;;;;;;;;19.40;65.00;;;;;;5007157;28;19948;-90
2021/12/31 07:40:50;;;;;;;;;;;19.40;65.30;;;;;;4978279;28;19936;-90
2021/12/31 07:43:16;;;;;;;;;;;19.40;65.10;;;;;;4986295;28;19922;-90
2021/12/31 07:45:41;;;;;;;;;;;19.40;65.30;;;;;;4991285;28;19917;-90
2021/12/31 07:48:07;;;;;;;;;;;19.40;65.10;;;;;;4981795;28;19918;-89
2021/12/31 07:50:34;;;;;;;;;;;19.40;65.40;;;;;;5001624;28;19913;-89
2021/12/31 07:52:59;;;;;;;;;;;19.50;65.60;;;;;;4994407;28;19928;-90
2021/12/31 07:55:25;;;;;;;;;;;19.50;65.40;;;;;;4979720;28;19913;-90
2021/12/31 07:57:50;;;;;;;;;;;19.60;65.40;;;;;;5012278;28;19920;-90
2021/12/31 08:00:16;;;;;;;;;;;19.60;65.10;;;;;;4994152;28;19913;-90
2021/12/31 08:02:41;;;;;;;;;;;19.60;64.90;;;;;;5012363;28;19918;-90
2021/12/31 08:05:07;;;;;;;;;;;19.60;65.00;;;;;;5012245;28;20453;-90
2021/12/31 08:07:32;;;;;;;;;;;19.50;64.80;;;;;;4994182;28;19913;-90
2021/12/31 08:09:58;;;;;;;;;;;19.50;64.90;;;;;;5012546;28;19921;-90
2021/12/31 08:12:23;;;;;;;;;;;19.50;65.10;;;;;;5012154;28;20312;-90
2021/12/31 08:14:49;;;;;;;;;;;19.60;65.20;;;;;;5011885;28;19914;-90
2021/12/31 08:17:14;;;;;;;;;;;19.70;66.00;;;;;;5011747;28;20020;-90
2021/12/31 08:19:41;;;;;;;;;;;19.80;66.10;;;;;;5011484;28;20337;-90
2021/12/31 08:22:07;;;;;;;;;;;20.00;66.10;;;;;;4993715;28;19917;-90
2021/12/31 08:24:32;;;;;;;;;;;20.10;66.10;;;;;;4996851;28;19913;-90
2021/12/31 08:26:58;;;;;;;;;;;20.30;66.00;;;;;;5002549;28;20254;-91
2021/12/31 08:29:23;;;;;;;;;;;20.40;66.30;;;;;;5001748;28;20446;-90
2021/12/31 08:31:49;;;;;;;;;;;20.50;66.30;;;;;;5014729;28;19925;-90
2021/12/31 08:34:14;;;;;;;;;;;20.60;65.40;;;;;;5006679;28;20403;-91
2021/12/31 08:36:40;;;;;;;;;;;20.60;64.70;;;;;;5011820;28;19913;-91
2021/12/31 08:39:07;;;;;;;;;;;20.70;65.30;;;;;;5011800;28;20336;-90
2021/12/31 08:41:37;;;;;;;;;;;20.80;65.20;;;;;;5011601;28;20381;-90
2021/12/31 08:44:02;;;;;;;;;;;20.80;65.30;;;;;;4994908;28;19922;-91
2021/12/31 08:46:28;;;;;;;;;;;21.00;65.20;;;;;;5004897;28;19974;-91
2021/12/31 08:48:54;;;;;;;;;;;21.00;64.80;;;;;;5007947;28;19976;-90
2021/12/31 08:51:20;;;;;;;;;;;21.00;64.80;;;;;;5003322;28;19918;-90
2021/12/31 08:53:45;;;;;;;;;;;21.00;64.60;;;;;;4974815;28;19924;-90
2021/12/31 08:56:10;;;;;;;;;;;21.00;64.50;;;;;;4993714;28;19910;-90
2021/12/31 08:58:36;;;;;;;;;;;21.00;64.20;;;;;;5006112;28;20372;-90
2021/12/31 09:01:02;;;;;;;;;;;20.90;63.70;;;;;;5012767;28;19924;-90
2021/12/31 09:03:27;;;;;;;;;;;20.90;63.80;;;;;;5026425;28;19944;-90
2021/12/31 09:05:54;;;;;;;;;;;20.80;64.20;;;;;;5005344;28;20262;-91
2021/12/31 09:08:19;;;;;;;;;;;20.80;64.00;;;;;;4999607;28;19922;-90
2021/12/31 09:10:45;;;;;;;;;;;20.80;64.20;;;;;;4996231;28;19917;-91
2021/12/31 09:13:10;;;;;;;;;;;20.80;63.90;;;;;;4997035;28;20361;-91
2021/12/31 09:15:36;;;;;;;;;;;20.70;63.60;;;;;;4998096;28;19923;-91
2021/12/31 09:18:02;;;;;;;;;;;20.70;63.70;;;;;;5011432;28;19921;-91
2021/12/31 09:20:28;;;;;;;;;;;20.70;63.70;;;;;;5001168;28;19976;-90
2021/12/31 09:22:54;;;;;;;;;;;20.70;63.90;;;;;;4999989;28;19968;-90
2021/12/31 09:25:20;;;;;;;;;;;20.70;64.20;;;;;;4997124;28;19921;-89
2021/12/31 09:27:45;;;;;;;;;;;20.70;64.30;;;;;;5011883;28;19923;-90
2021/12/31 09:30:11;;;;;;;;;;;20.70;64.00;;;;;;5016018;28;19950;-90
2021/12/31 09:32:36;;;;;;;;;;;20.70;63.90;;;;;;4989036;28;20286;-91
2021/12/31 09:35:02;;;;;;;;;;;20.70;64.00;;;;;;4993388;28;20753;-90
2021/12/31 09:37:31;;;;;;;;;;;20.70;63.90;;;;;;4984575;28;19921;-91
2021/12/31 09:39:56;;;;;;;;;;;20.70;63.80;;;;;;5004430;28;19929;-91
2021/12/31 09:42:22;;;;;;;;;;;20.70;64.30;;;;;;5006756;28;20350;-91
2021/12/31 09:44:47;;;;;;;;;;;20.70;64.50;;;;;;4982930;28;19914;-90
2021/12/31 09:47:14;;;;;;;;;;;20.80;64.20;;;;;;4990171;28;19923;-91
2021/12/31 09:49:40;;;;;;;;;;;20.80;64.10;;;;;;5008367;28;20281;-89
2021/12/31 09:52:11;;;;;;;;;;;20.80;64.10;;;;;;5001628;28;19981;-89
2021/12/31 09:54:44;;;;;;;;;;;20.80;63.70;;;;;;4997818;28;19917;-91
2021/12/31 09:57:13;;;;;;;;;;;20.80;63.80;;;;;;4985138;28;19917;-90
2021/12/31 09:59:40;;;;;;;;;;;20.80;64.10;;;;;;4991605;28;19967;-92
2021/12/31 10:02:06;;;;;;;;;;;20.90;64.20;;;;;;4988597;28;19925;-91
2021/12/31 10:04:51;;;;;;;;;;;20.90;64.10;;;;;;4983512;28;19918;-91
2021/12/31 10:07:21;;;;;;;;;;;21.00;63.80;;;;;;5003699;28;20353;-91
2021/12/31 10:10:02;;;;;;;;;;;21.00;63.90;;;;;;4990102;28;20021;-93
2021/12/31 10:12:42;;;;;;;;;;;21.00;63.70;;;;;;4998638;28;19917;-89
2021/12/31 10:15:08;;;;;;;;;;;20.90;63.60;;;;;;5013044;28;20012;-89
2021/12/31 10:17:34;;;;;;;;;;;20.90;64.00;;;;;;4988059;28;20443;-90
2021/12/31 10:20:00;;;;;;;;;;;20.90;63.50;;;;;;5014601;28;20368;-90
2021/12/31 10:22:25;;;;;;;;;;;20.90;63.30;;;;;;4984727;28;19918;-92
2021/12/31 10:24:52;;;;;;;;;;;20.90;63.30;;;;;;4997849;28;19924;-91
2021/12/31 10:27:19;;;;;;;;;;;20.80;63.50;;;;;;4996037;28;19949;-93
2021/12/31 10:29:50;;;;;;;;;;;20.90;63.70;;;;;;4994810;28;19921;-91
2021/12/31 10:32:16;;;;;;;;;;;20.90;63.90;;;;;;5007286;28;19939;-90
2021/12/31 10:34:42;;;;;;;;;;;20.90;63.80;;;;;;5000004;28;20553;-91
2021/12/31 10:37:17;;;;;;;;;;;20.90;64.00;;;;;;4991861;28;19910;-91
2021/12/31 10:39:43;;;;;;;;;;;21.00;63.80;;;;;;5000148;28;19972;-91
2021/12/31 10:42:10;;;;;;;;;;;21.00;63.90;;;;;;4988701;28;20059;-93
2021/12/31 10:44:49;;;;;;;;;;;21.00;63.40;;;;;;4995347;28;19922;-94
2021/12/31 10:47:19;;;;;;;;;;;21.10;64.00;;;;;;5012289;28;19933;-95
2021/12/31 10:50:06;;;;;;;;;;;21.30;64.50;;;;;;5019824;28;19917;-93
2021/12/31 10:53:02;;;;;;;;;;;21.40;64.30;;;;;;5012100;28;19914;-93
2021/12/31 10:55:30;;;;;;;;;;;21.50;64.30;;;;;;4992767;28;19924;-93
2021/12/31 10:58:00;;;;;;;;;;;21.70;64.00;;;;;;5025796;28;19913;-92
2021/12/31 11:00:27;;;;;;;;;;;21.70;62.80;;;;;;4997201;28;19921;-91
2021/12/31 11:02:53;;;;;;;;;;;21.70;62.30;;;;;;4995836;28;19948;-93
2021/12/31 11:05:21;;;;;;;;;;;21.70;61.50;;;;;;4996962;28;20065;-92
2021/12/31 11:07:47;;;;;;;;;;;21.60;61.90;;;;;;4993601;28;19920;-92
2021/12/31 11:10:14;;;;;;;;;;;21.60;62.10;;;;;;4998540;28;20378;-92
2021/12/31 11:12:43;;;;;;;;;;;21.50;61.90;;;;;;4998211;28;19930;-93
2021/12/31 11:15:09;;;;;;;;;;;21.50;60.90;;;;;;4995482;28;19960;-92
2021/12/31 11:17:36;;;;;;;;;;;21.40;61.80;;;;;;4997519;28;19910;-91
2021/12/31 11:20:04;;;;;;;;;;;21.40;62.50;;;;;;5008303;28;19913;-92
2021/12/31 11:22:30;;;;;;;;;;;21.50;62.60;;;;;;4983788;28;19921;-93
2021/12/31 11:25:14;;;;;;;;;;;21.40;62.30;;;;;;4988878;28;19917;-93
2021/12/31 11:27:44;;;;;;;;;;;21.50;62.50;;;;;;5000882;28;20277;-93
2021/12/31 11:30:28;;;;;;;;;;;21.50;61.60;;;;;;5011006;28;19945;-92
2021/12/31 11:32:56;;;;;;;;;;;21.40;61.50;;;;;;5005627;28;19918;-94
2021/12/31 11:35:38;;;;;;;;;;;21.40;62.60;;;;;;4987954;28;19925;-93
2021/12/31 11:38:05;;;;;;;;;;;21.50;63.40;;;;;;4988047;28;19917;-94
2021/12/31 11:40:33;;;;;;;;;;;21.50;62.50;;;;;;4992203;28;19922;-93
2021/12/31 11:43:23;;;;;;;;;;;21.50;61.30;;;;;;5011623;28;19973;-94
2021/12/31 11:46:07;;;;;;;;;;;21.50;62.00;;;;;;5007373;28;19929;-94
2021/12/31 11:48:48;;;;;;;;;;;21.50;62.00;;;;;;5010000;28;19904;-95
2021/12/31 11:51:14;;;;;;;;;;;21.50;62.40;;;;;;4994081;28;19924;-94
2021/12/31 11:54:01;;;;;;;;;;;21.50;62.60;;;;;;4998861;28;19897;-96
2021/12/31 11:56:36;;;;;;;;;;;21.40;62.40;;;;;;5020059;28;20372;-94
2021/12/31 11:59:08;;;;;;;;;;;21.40;61.90;;;;;;4993431;28;20000;-92
2021/12/31 12:01:36;;;;;;;;;;;21.40;61.90;;;;;;4992085;28;19957;-92
2021/12/31 12:04:23;;;;;;;;;;;21.40;62.40;;;;;;4991642;28;19916;-92
2021/12/31 12:06:58;;;;;;;;;;;21.40;62.00;;;;;;5010216;28;19952;-92
2021/12/31 12:09:43;;;;;;;;;;;21.40;62.20;;;;;;5005501;28;20353;-93
2021/12/31 12:12:26;;;;;;;;;;;21.30;61.90;;;;;;4992188;28;19926;-93
2021/12/31 12:14:53;;;;;;;;;;;21.40;61.50;;;;;;4987418;28;19988;-93
2021/12/31 12:17:29;;;;;;;;;;;21.30;61.30;;;;;;4993906;28;19925;-93
2021/12/31 12:20:01;;;;;;;;;;;21.30;61.20;;;;;;4991539;28;20580;-93
2021/12/31 12:22:26;;;;;;;;;;;21.30;61.70;;;;;;5000691;28;19953;-93
2021/12/31 12:24:52;;;;;;;;;;;21.30;61.80;;;;;;5000016;28;19929;-93
2021/12/31 12:27:20;;;;;;;;;;;21.30;62.00;;;;;;5005132;28;19909;-95
2021/12/31 12:29:46;;;;;;;;;;;21.30;61.50;;;;;;4996212;28;19925;-93
2021/12/31 12:32:12;;;;;;;;;;;21.30;61.40;;;;;;5010444;28;19909;-92
2021/12/31 12:34:38;;;;;;;;;;;21.20;60.70;;;;;;5000473;28;19913;-92
2021/12/31 12:37:03;;;;;;;;;;;21.20;61.30;;;;;;4997277;28;19973;-93
2021/12/31 12:39:29;;;;;;;;;;;21.20;61.70;;;;;;4991042;28;19914;-92
2021/12/31 12:41:55;;;;;;;;;;;21.20;61.70;;;;;;4993489;28;19925;-92
2021/12/31 12:44:20;;;;;;;;;;;21.30;61.30;;;;;;4989727;28;20340;-92
2021/12/31 12:46:53;;;;;;;;;;;21.30;61.70;;;;;;4997023;28;20374;-95
2021/12/31 12:49:19;;;;;;;;;;;21.30;61.00;;;;;;4991705;28;19920;-96
2021/12/31 12:51:46;;;;;;;;;;;21.30;60.80;;;;;;5010665;28;19906;-96
2021/12/31 12:54:17;;;;;;;;;;;21.30;61.70;;;;;;5005335;28;20369;-93
2021/12/31 12:56:42;;;;;;;;;;;21.30;62.50;;;;;;4997633;28;19921;-95
2021/12/31 12:59:09;;;;;;;;;;;21.40;61.60;;;;;;5002938;28;20133;-95
2021/12/31 13:01:47;;;;;;;;;;;21.40;61.10;;;;;;5000343;28;19913;-96
2021/12/31 13:04:13;;;;;;;;;;;21.40;61.00;;;;;;5000129;28;19922;-94
2021/12/31 13:06:41;;;;;;;;;;;21.40;60.70;;;;;;4995978;28;19941;-94
2021/12/31 13:09:08;;;;;;;;;;;21.40;60.30;;;;;;5018958;28;19917;-96
2021/12/31 13:11:35;;;;;;;;;;;21.40;60.30;;;;;;5001013;28;19915;-96
2021/12/31 13:14:01;;;;;;;;;;;21.40;60.20;;;;;;4997986;28;19924;-96
2021/12/31 13:16:27;;;;;;;;;;;21.40;60.00;;;;;;4997814;28;19897;-94
2021/12/31 13:18:57;;;;;;;;;;;21.50;60.50;;;;;;4994591;28;19988;-95
2021/12/31 13:21:23;;;;;;;;;;;21.60;61.20;;;;;;5011054;28;20392;-95
2021/12/31 13:23:53;;;;;;;;;;;21.70;60.90;;;;;;4996123;28;19922;-94
2021/12/31 13:26:49;;;;;;;;;;;21.70;60.70;;;;;;5006535;28;19941;-94
2021/12/31 13:29:16;;;;;;;;;;;21.70;60.00;;;;;;4977357;28;19917;-95
2021/12/31 13:31:42;;;;;;;;;;;21.70;60.00;;;;;;5010226;28;19913;-93
2021/12/31 13:34:15;;;;;;;;;;;21.60;59.60;;;;;;5008562;28;19967;-94
2021/12/31 13:36:44;;;;;;;;;;;21.50;59.80;;;;;;5010077;28;19963;-94
2021/12/31 13:39:12;;;;;;;;;;;21.40;60.00;;;;;;4997510;28;19925;-94
2021/12/31 13:41:53;;;;;;;;;;;21.30;59.30;;;;;;5015171;28;19924;-87
2021/12/31 13:44:26;;;;;;;;;;;21.30;60.10;;;;;;5000144;28;19964;-88
2021/12/31 13:47:18;;;;;;;;;;;21.30;60.40;;;;;;5005673;28;19914;-88
2021/12/31 13:49:48;;;;;;;;;;;21.30;60.50;;;;;;4993003;28;19924;-87
2021/12/31 13:52:16;;;;;;;;;;;21.40;60.40;;;;;;4993760;28;19933;-87
2021/12/31 13:54:44;;;;;;;;;;;21.40;60.60;;;;;;4983875;28;20008;-87
2021/12/31 13:57:26;;;;;;;;;;;21.30;60.60;;;;;;4993080;28;20289;-88
2021/12/31 13:59:52;;;;;;;;;;;21.30;60.60;;;;;;4994944;28;19924;-88
2021/12/31 14:02:25;;;;;;;;;;;21.20;60.30;;;;;;4992590;28;19921;-89
2021/12/31 14:04:54;;;;;;;;;;;21.20;60.60;;;;;;4996407;28;19929;-89
2021/12/31 14:07:28;;;;;;;;;;;21.20;61.10;;;;;;4987482;28;20285;-90
2021/12/31 14:09:54;;;;;;;;;;;21.20;60.30;;;;;;4991030;28;19913;-89
2021/12/31 14:12:20;;;;;;;;;;;21.10;60.40;;;;;;4989826;28;20357;-88
2021/12/31 14:14:46;;;;;;;;;;;21.00;60.50;;;;;;5010886;28;19914;-89
2021/12/31 14:17:11;;;;;;;;;;;20.90;60.30;;;;;;4990486;28;19914;-89
2021/12/31 14:19:41;;;;;;;;;;;20.70;60.30;;;;;;4986927;28;19918;-88
2021/12/31 14:22:08;;;;;;;;;;;20.70;60.90;;;;;;5010951;28;19960;-89
2021/12/31 14:24:33;;;;;;;;;;;20.60;60.80;;;;;;5000307;28;19925;-89